Time;durP1;ratioP1;P1;durP2;ratioP2;P2;SDS_P1;SDS_P2;PMS_P1;PMS_P2;Temp;Humidity;BMP_temperature;BMP_pressure;BME280_temperature;BME280_humidity;BME280_pressure;Samples;Min_cycle;Max_cycle;Signal;HPM_P1;HPM_P2
2021/05/18 00:02:16;;;;;;;0.90;0.90;;;;;;;2.84;100.00;99306.88;4935982;29;20063;-81
2021/05/18 00:05:21;;;;;;;0.65;0.65;;;;;;;2.82;100.00;99311.25;4935769;29;20067;-77
2021/05/18 00:08:27;;;;;;;1.02;1.02;;;;;;;2.80;100.00;99311.72;4936283;29;20058;-78
2021/05/18 00:11:44;;;;;;;1.73;1.60;;;;;;;2.76;100.00;99313.00;4936050;29;20055;-78
2021/05/18 00:14:48;;;;;;;3.70;1.15;;;;;;;2.76;100.00;99311.03;4935736;29;20070;-78
2021/05/18 00:17:52;;;;;;;0.90;0.90;;;;;;;2.77;100.00;99309.81;4935740;29;20078;-78
2021/05/18 00:20:55;;;;;;;1.33;1.33;;;;;;;2.78;100.00;99308.63;4935668;29;20059;-77
2021/05/18 00:23:59;;;;;;;1.98;1.77;;;;;;;2.77;100.00;99309.06;4935799;29;20461;-78
2021/05/18 00:27:03;;;;;;;1.33;1.33;;;;;;;2.76;100.00;99315.75;4934976;29;20062;-78
2021/05/18 00:30:10;;;;;;;1.77;1.67;;;;;;;2.81;100.00;99307.75;4934780;29;20284;-79
2021/05/18 00:33:24;;;;;;;1.20;1.20;;;;;;;2.85;100.00;99310.41;4934773;29;20063;-78
2021/05/18 00:36:27;;;;;;;1.30;1.20;;;;;;;2.94;100.00;99316.81;4934576;29;20062;-78
2021/05/18 00:39:30;;;;;;;1.08;1.08;;;;;;;3.03;100.00;99316.91;4934955;29;20067;-77
2021/05/18 00:42:44;;;;;;;1.38;1.23;;;;;;;3.16;100.00;99321.69;4934940;29;20059;-78
2021/05/18 00:45:49;;;;;;;0.90;0.90;;;;;;;3.25;100.00;99316.31;4923302;29;20066;-77
2021/05/18 00:48:56;;;;;;;1.05;1.05;;;;;;;3.36;100.00;99322.22;4935990;29;20418;-78
2021/05/18 00:52:00;;;;;;;1.15;1.15;;;;;;;3.45;100.00;99322.34;4934607;29;20412;-78
2021/05/18 00:55:07;;;;;;;0.80;0.80;;;;;;;3.53;100.00;99323.69;4922931;29;20059;-78
2021/05/18 00:58:27;;;;;;;1.80;1.70;;;;;;;3.58;100.00;99325.88;4934439;29;20058;-78
2021/05/18 01:01:32;;;;;;;1.00;1.00;;;;;;;3.59;100.00;99324.69;4934335;29;20079;-78
2021/05/18 01:04:41;;;;;;;1.05;1.05;;;;;;;3.63;100.00;99323.34;4935006;29;20075;-78
2021/05/18 01:07:46;;;;;;;1.05;1.05;;;;;;;3.69;100.00;99326.31;4935052;29;20074;-78
2021/05/18 01:10:50;;;;;;;4.47;1.10;;;;;;;3.70;100.00;99322.34;4934738;29;20067;-78
2021/05/18 01:13:58;;;;;;;1.08;1.08;;;;;;;3.74;100.00;99328.53;4935080;29;20062;-77
2021/05/18 01:17:02;;;;;;;0.93;0.93;;;;;;;3.74;100.00;99323.78;4933569;29;20484;-77
2021/05/18 01:20:10;;;;;;;11.93;1.38;;;;;;;3.76;100.00;99320.59;4935064;29;20521;-77
2021/05/18 01:23:16;;;;;;;2.08;1.88;;;;;;;3.83;100.00;99320.38;4934623;29;20110;-77
2021/05/18 01:26:20;;;;;;;0.80;0.80;;;;;;;3.91;100.00;99327.16;4922110;29;20059;-78
2021/05/18 01:29:24;;;;;;;1.27;1.00;;;;;;;3.97;100.00;99328.16;4922688;29;20075;-77
2021/05/18 01:32:27;;;;;;;3.15;1.65;;;;;;;4.01;100.00;99326.03;4922678;29;20063;-78
2021/05/18 01:35:31;;;;;;;1.10;1.10;;;;;;;4.05;100.00;99326.69;4934100;29;20067;-78
2021/05/18 01:38:46;;;;;;;0.80;0.80;;;;;;;4.10;100.00;99334.41;4934391;29;20067;-78
2021/05/18 01:45:19;;;;;;;1.00;1.00;;;;;;;4.19;100.00;99331.75;4934434;29;20059;-78
2021/05/18 01:48:23;;;;;;;1.15;1.13;;;;;;;4.24;100.00;99339.44;4933550;29;20087;-78
2021/05/18 01:51:29;;;;;;;3.60;0.95;;;;;;;4.31;100.00;99344.69;4934440;29;20067;-78
2021/05/18 01:54:34;;;;;;;3.13;0.88;;;;;;;4.35;100.00;99345.34;4933808;29;20071;-78
2021/05/18 01:57:38;;;;;;;1.23;1.15;;;;;;;4.36;100.00;99333.13;4933906;29;20062;-78
2021/05/18 02:00:42;;;;;;;1.10;1.00;;;;;;;4.37;100.00;99340.19;4934025;29;20070;-77
2021/05/18 02:03:45;;;;;;;0.90;0.90;;;;;;;4.42;100.00;99334.09;4933786;29;20062;-78
2021/05/18 02:06:50;;;;;;;0.40;0.40;;;;;;;4.46;100.00;99340.25;4932884;29;20070;-78
2021/05/18 02:09:53;;;;;;;1.40;0.80;;;;;;;4.52;100.00;99332.97;4933574;29;20078;-78
2021/05/18 02:12:57;;;;;;;0.95;0.95;;;;;;;4.57;100.00;99339.88;4932641;29;20418;-77
2021/05/18 02:16:06;;;;;;;0.60;0.60;;;;;;;4.61;100.00;99341.28;4911547;29;20060;-78
2021/05/18 02:19:39;;;;;;;1.25;1.15;;;;;;;4.63;100.00;99349.88;4914388;29;20532;-78
2021/05/18 02:25:53;;;;;;;0.90;0.90;;;;;;;4.70;100.00;99337.81;4912918;29;20071;-77
2021/05/18 02:28:57;;;;;;;0.70;0.70;;;;;;;4.70;100.00;99337.09;4914730;29;20063;-77
2021/05/18 02:32:00;;;;;;;2.63;1.42;;;;;;;4.72;100.00;99335.38;4914696;29;20071;-77
2021/05/18 02:35:07;;;;;;;13.90;1.50;;;;;;;4.72;100.00;99337.41;4914477;29;20126;-77
2021/05/18 02:38:11;;;;;;;1.13;1.13;;;;;;;4.71;100.00;99338.59;4914361;29;20082;-78
2021/05/18 02:41:15;;;;;;;0.88;0.88;;;;;;;4.70;100.00;99342.59;4914184;29;20063;-78
2021/05/18 02:50:47;;;;;;;1.30;1.20;;;;;;;4.68;100.00;99345.03;4914086;29;20067;-78
2021/05/18 02:53:50;;;;;;;1.15;1.15;;;;;;;4.69;100.00;99343.81;4914235;29;20067;-77
2021/05/18 02:56:56;;;;;;;4.03;1.45;;;;;;;4.69;100.00;99332.78;4913964;29;20075;-78
2021/05/18 03:00:08;;;;;;;4.00;1.25;;;;;;;4.68;100.00;99339.53;4913969;29;20063;-78
2021/05/18 03:03:11;;;;;;;1.45;1.40;;;;;;;4.68;100.00;99348.53;4914156;29;20422;-78
2021/05/18 03:06:15;;;;;;;0.82;0.82;;;;;;;4.69;100.00;99349.31;4912035;29;20059;-77
2021/05/18 03:09:19;;;;;;;1.27;0.57;;;;;;;4.72;100.00;99346.41;4911281;29;20526;-78
2021/05/18 03:12:22;;;;;;;3.40;0.85;;;;;;;4.74;100.00;99335.75;4910051;29;20056;-77
2021/05/18 03:15:26;;;;;;;1.38;1.27;;;;;;;4.76;100.00;99336.06;4913671;29;20074;-77
2021/05/18 03:18:30;;;;;;;6.93;1.58;;;;;;;4.79;100.00;99334.38;4913989;29;20059;-78
2021/05/18 03:21:33;;;;;;;2.10;1.20;;;;;;;4.77;100.00;99332.06;4927265;29;20430;-78
2021/05/18 03:24:41;;;;;;;3.90;1.20;;;;;;;4.76;100.00;99332.53;4917596;29;20525;-77
2021/05/18 03:27:45;;;;;;;1.85;1.20;;;;;;;4.71;100.00;99338.59;4916134;29;20067;-77
2021/05/18 03:37:25;;;;;;;1.42;0.98;;;;;;;4.71;100.00;99333.09;4914441;29;20063;-77
2021/05/18 03:40:30;;;;;;;1.13;1.13;;;;;;;4.75;100.00;99339.25;4916860;29;20549;-77
2021/05/18 04:03:27;;;;;;;0.95;0.95;;;;;;;4.84;100.00;99348.38;4914080;29;20063;-78
2021/05/18 04:20:41;;;;;;;6.65;1.20;;;;;;;4.98;100.00;99353.34;4909911;29;20063;-77
2021/05/18 04:52:51;;;;;;;4.07;2.13;;;;;;;5.35;100.00;99362.63;4916547;29;20381;-77
2021/05/18 04:59:21;;;;;;;1.90;1.80;;;;;;;5.32;100.00;99356.03;4912252;29;20067;-78
2021/05/18 05:15:25;;;;;;;0.90;0.90;;;;;;;4.94;100.00;99362.97;4917650;29;20059;-77
2021/05/18 05:18:29;;;;;;;1.38;1.08;;;;;;;4.91;100.00;99372.16;4918028;29;20430;-78
2021/05/18 05:21:33;;;;;;;1.90;1.40;;;;;;;4.89;100.00;99367.13;4911797;29;20059;-78
2021/05/18 05:24:40;;;;;;;1.25;1.25;;;;;;;4.90;100.00;99371.41;4910822;29;20075;-78
2021/05/18 05:27:44;;;;;;;0.73;0.73;;;;;;;4.91;100.00;99374.94;4905456;29;20064;-78
2021/05/18 05:30:47;;;;;;;1.17;1.17;;;;;;;4.90;100.00;99376.91;4912947;29;20407;-79
2021/05/18 05:33:50;;;;;;;1.20;1.00;;;;;;;4.95;100.00;99378.31;4898956;29;20063;-78
2021/05/18 05:36:54;;;;;;;1.20;1.10;;;;;;;4.95;100.00;99386.59;4904672;29;20067;-78
2021/05/18 05:39:58;;;;;;;4.00;1.63;;;;;;;4.97;100.00;99379.41;4910510;29;20055;-78
2021/05/18 05:43:01;;;;;;;1.27;1.08;;;;;;;4.91;100.00;99385.97;4903538;29;20055;-78
2021/05/18 05:46:05;;;;;;;1.08;0.98;;;;;;;4.90;100.00;99392.69;4913071;29;20059;-80
2021/05/18 05:49:08;;;;;;;4.00;1.90;;;;;;;4.92;100.00;99393.00;4900678;29;20514;-80
2021/05/18 05:52:20;;;;;;;3.72;1.80;;;;;;;4.98;100.00;99380.94;4910377;29;20077;-80
2021/05/18 05:55:24;;;;;;;3.78;2.10;;;;;;;5.10;100.00;99398.66;4913822;29;20059;-80
2021/05/18 05:58:28;;;;;;;2.92;1.35;;;;;;;5.21;100.00;99390.78;4907245;29;20059;-80
2021/05/18 06:01:33;;;;;;;4.65;2.15;;;;;;;5.29;100.00;99389.28;4912482;29;20063;-81
2021/05/18 06:04:36;;;;;;;3.58;1.92;;;;;;;5.38;100.00;99403.94;4911808;29;20092;-80
2021/05/18 06:07:40;;;;;;;5.38;1.75;;;;;;;5.50;100.00;99409.81;4914539;29;20433;-80
2021/05/18 06:10:46;;;;;;;1.25;1.15;;;;;;;5.65;100.00;99411.56;4912433;29;20078;-79
2021/05/18 06:49:58;;;;;;;1.20;0.52;;;;;;;8.31;100.00;99432.84;4907764;29;20063;-80
2021/05/18 06:53:02;;;;;;;2.30;0.80;;;;;;;8.27;100.00;99429.50;4904651;29;20060;-81
2021/05/18 06:56:06;;;;;;;1.15;0.75;;;;;;;8.39;100.00;99431.25;4871490;29;20068;-78
2021/05/18 07:02:13;;;;;;;1.20;0.52;;;;;;;8.90;100.00;99431.84;4875658;29;20064;-78
2021/05/18 07:11:31;;;;;;;0.35;0.30;;;;;;;9.38;100.00;99426.19;4874779;29;20087;-78
2021/05/18 07:14:34;;;;;;;0.38;0.38;;;;;;;9.84;100.00;99424.47;4860053;29;20069;-78
2021/05/18 07:17:37;;;;;;;0.45;0.25;;;;;;;10.23;100.00;99416.75;4887612;29;20071;-78
2021/05/18 07:20:41;;;;;;;2.15;0.65;;;;;;;10.26;100.00;99408.22;4909728;29;20067;-77
2021/05/18 07:23:44;;;;;;;2.08;1.15;;;;;;;10.26;100.00;99404.66;4896778;29;20063;-78
2021/05/18 07:26:49;;;;;;;0.88;0.30;;;;;;;10.03;100.00;99409.09;4888179;29;20059;-78
2021/05/18 07:29:53;;;;;;;0.25;0.20;;;;;;;9.91;100.00;99412.97;4887921;29;20772;-77
2021/05/18 07:32:57;;;;;;;0.22;0.22;;;;;;;9.89;100.00;99409.91;4914209;29;20418;-75
2021/05/18 07:36:08;;;;;;;2.38;0.30;;;;;;;10.10;100.00;99403.13;4913774;29;20063;-74
2021/05/18 07:39:12;;;;;;;0.68;0.10;;;;;;;10.21;100.00;99403.34;4890516;29;20072;-75
2021/05/18 07:42:15;;;;;;;0.17;0.17;;;;;;;10.11;100.00;99407.50;4870318;29;20063;-74
2021/05/18 07:45:26;;;;;;;0.30;0.17;;;;;;;10.07;100.00;99408.91;4857522;29;20055;-74
2021/05/18 08:08:38;;;;;;;0.45;0.20;;;;;;;11.28;100.00;99406.97;4876215;29;20080;-75
2021/05/18 08:11:42;;;;;;;0.20;0.10;;;;;;;11.63;100.00;99410.31;4897534;29;20375;-76
2021/05/18 08:15:08;;;;;;;0.28;0.28;;;;;;;12.06;100.00;99411.97;4888845;29;20063;-75
2021/05/18 10:24:25;;;;;;;0.10;0.00;;;;;;;14.12;100.00;99430.25;4895270;29;20068;-75
2021/05/18 10:36:55;;;;;;;0.25;0.20;;;;;;;15.66;100.00;99417.72;4895610;29;20071;-75
2021/05/18 10:40:24;;;;;;;0.52;0.22;;;;;;;16.08;100.00;99427.63;4895644;29;20067;-73
2021/05/18 10:43:35;;;;;;;0.10;0.10;;;;;;;16.33;100.00;99417.94;4894801;29;20067;-76
2021/05/18 10:46:52;;;;;;;3.50;0.27;;;;;;;16.21;100.00;99416.53;4896036;29;20092;-76
2021/05/18 10:49:56;;;;;;;0.17;0.08;;;;;;;16.37;100.00;99415.59;4896590;29;20059;-76
2021/05/18 10:53:21;;;;;;;0.20;0.10;;;;;;;15.84;100.00;99421.94;4896747;29;20534;-76
2021/05/18 10:56:25;;;;;;;0.20;0.10;;;;;;;15.13;100.00;99421.88;4895747;29;20423;-76
2021/05/18 10:59:39;;;;;;;0.73;0.28;;;;;;;14.83;100.00;99418.16;4895961;29;20059;-76
2021/05/18 11:02:43;;;;;;;0.10;0.00;;;;;;;14.84;100.00;99419.69;4895601;29;20067;-76
2021/05/18 11:05:47;;;;;;;1.35;0.32;;;;;;;15.16;100.00;99412.41;4895077;29;20067;-77
2021/05/18 11:08:59;;;;;;;0.95;0.28;;;;;;;14.97;100.00;99425.50;4894714;29;20115;-74
2021/05/18 11:12:16;;;;;;;0.20;0.20;;;;;;;14.66;100.00;99428.66;4896437;29;20063;-78
2021/05/18 11:15:22;;;;;;;0.45;0.22;;;;;;;14.43;100.00;99424.38;4894602;29;20416;-75
2021/05/18 11:18:30;;;;;;;0.10;0.10;;;;;;;14.31;100.00;99418.03;4895481;29;20064;-75
2021/05/18 11:21:37;;;;;;;0.10;0.10;;;;;;;14.19;100.00;99422.09;4895948;29;20064;-75
2021/05/18 11:24:48;;;;;;;2.28;0.60;;;;;;;14.36;100.00;99424.91;4894346;29;20067;-75
2021/05/18 11:27:52;;;;;;;;;;;;;;;14.40;100.00;99431.03;4895147;29;20063;-74
2021/05/18 11:30:58;;;;;;;1.58;0.20;;;;;;;14.64;100.00;99422.78;4905019;29;19931;-73
2021/05/18 11:34:04;;;;;;;0.30;0.20;;;;;;;15.29;100.00;99420.22;4876198;29;20064;-74
2021/05/18 11:37:13;;;;;;;0.65;0.30;;;;;;;15.84;100.00;99413.53;4894976;29;20087;-74
2021/05/18 11:40:17;;;;;;;0.30;0.10;;;;;;;15.78;100.00;99416.38;4894985;29;20063;-75
2021/05/18 11:43:23;;;;;;;0.10;0.00;;;;;;;15.47;100.00;99418.88;4898226;29;20526;-75
2021/05/18 11:46:29;;;;;;;0.10;0.10;;;;;;;15.16;100.00;99432.03;4898864;29;20075;-75
2021/05/18 11:49:33;;;;;;;0.40;0.10;;;;;;;14.92;100.00;99431.88;4898778;29;20063;-75
2021/05/18 11:52:37;;;;;;;0.28;0.10;;;;;;;14.63;100.00;99431.72;4898781;29;20068;-74
2021/05/18 11:55:40;;;;;;;0.30;0.15;;;;;;;14.40;100.00;99433.81;4908874;29;20067;-78
2021/05/18 11:58:44;;;;;;;4.45;0.30;;;;;;;14.76;100.00;99427.09;4906880;29;20067;-77
2021/05/18 12:01:50;;;;;;;2.80;0.30;;;;;;;15.03;100.00;99429.03;4893347;29;20063;-79
2021/05/18 12:05:03;;;;;;;2.13;0.30;;;;;;;15.22;100.00;99420.03;4895971;29;20121;-79
2021/05/18 12:08:25;;;;;;;7.45;1.08;;;;;;;15.04;100.00;99422.16;4917223;29;20051;-78
2021/05/18 12:11:29;;;;;;;0.75;0.20;;;;;;;14.83;100.00;99423.78;4916446;29;20063;-83
2021/05/18 12:14:40;;;;;;;1.08;0.52;;;;;;;15.09;100.00;99424.16;4918715;29;20047;-77
2021/05/18 12:17:44;;;;;;;0.90;0.32;;;;;;;15.26;100.00;99420.50;4919235;29;20055;-80
2021/05/18 12:20:47;;;;;;;0.40;0.10;;;;;;;15.18;100.00;99421.06;4928004;29;20059;-80
2021/05/18 12:24:12;;;;;;;0.22;0.20;;;;;;;15.23;100.00;99410.31;4918069;29;20067;-81
2021/05/18 12:27:16;;;;;;;0.40;0.20;;;;;;;15.55;100.00;99415.00;4917626;29;20075;-78
2021/05/18 12:30:19;;;;;;;1.23;0.10;;;;;;;15.49;100.00;99414.28;4917409;29;20071;-84
2021/05/18 12:33:36;;;;;;;0.10;0.10;;;;;;;15.56;100.00;99415.78;4915942;29;20411;-78
2021/05/18 12:36:47;;;;;;;0.10;0.00;;;;;;;15.61;100.00;99412.94;4915485;29;20056;-78
2021/05/18 12:39:51;;;;;;;0.15;0.15;;;;;;;15.43;100.00;99404.34;4914842;29;20063;-82
2021/05/18 12:43:07;;;;;;;0.25;0.10;;;;;;;15.25;100.00;99418.97;4917111;29;20525;-83
2021/05/18 12:46:13;;;;;;;0.10;0.10;;;;;;;15.04;100.00;99416.53;4916631;29;20067;-80
2021/05/18 12:49:24;;;;;;;0.10;0.10;;;;;;;14.82;100.00;99419.44;4916618;29;20133;-81
2021/05/18 12:52:40;;;;;;;0.77;0.32;;;;;;;14.53;100.00;99428.41;4913928;29;20068;-79
2021/05/18 12:55:43;;;;;;;5.05;0.40;;;;;;;14.28;100.00;99426.66;4901348;29;20063;-81
2021/05/18 12:58:47;;;;;;;0.30;0.20;;;;;;;14.02;100.00;99426.19;4914946;29;20067;-78
2021/05/18 13:01:51;;;;;;;1.60;0.30;;;;;;;13.69;100.00;99436.09;4937316;29;20059;-78
2021/05/18 13:05:06;;;;;;;0.57;0.20;;;;;;;13.24;100.00;99444.88;4916447;29;20549;-78
2021/05/18 13:08:14;;;;;;;0.28;0.10;;;;;;;12.82;100.00;99459.69;4915806;29;20067;-80
2021/05/18 13:14:25;;;;;;;1.98;0.20;;;;;;;11.85;100.00;99473.94;4915891;29;20059;-79
2021/05/18 13:17:30;;;;;;;0.52;0.32;;;;;;;11.46;100.00;99476.31;4915785;29;20063;-79
2021/05/18 13:20:53;;;;;;;2.38;0.45;;;;;;;11.06;100.00;99482.72;4919092;29;20067;-81
2021/05/18 13:27:10;;;;;;;0.47;0.47;;;;;;;10.45;100.00;99490.22;4916256;29;20078;-81
2021/05/18 13:30:14;;;;;;;0.65;0.43;;;;;;;10.23;100.00;99498.22;4926928;29;20067;-80
2021/05/18 13:33:17;;;;;;;0.47;0.30;;;;;;;10.02;100.00;99502.16;4917627;29;20062;-84
2021/05/18 13:36:21;;;;;;;0.82;0.40;;;;;;;9.80;100.00;99510.09;4916188;29;20063;-82
2021/05/18 13:39:25;;;;;;;0.60;0.30;;;;;;;9.69;100.00;99512.69;4917246;29;20063;-82
2021/05/18 13:42:29;;;;;;;1.08;0.60;;;;;;;9.67;100.00;99515.19;4915795;29;20059;-84
2021/05/18 13:45:33;;;;;;;6.45;1.60;;;;;;;9.71;100.00;99521.31;4917242;29;20063;-84
2021/05/18 13:48:37;;;;;;;6.10;1.08;;;;;;;9.81;100.00;99528.34;4916729;29;20059;-82
2021/05/18 13:51:41;;;;;;;10.90;2.92;;;;;;;9.93;100.00;99532.84;4916007;29;20071;-82
2021/05/18 13:54:45;;;;;;;7.35;2.55;;;;;;;10.01;100.00;99533.22;4915135;29;20067;-85
2021/05/18 13:57:49;;;;;;;9.88;1.88;;;;;;;10.08;100.00;99538.41;4906030;29;20075;-81
2021/05/18 14:00:53;;;;;;;7.55;2.58;;;;;;;10.16;100.00;99545.91;4900433;29;20068;-84
2021/05/18 14:03:57;;;;;;;1.08;0.85;;;;;;;10.22;100.00;99544.00;4909757;29;20079;-81
2021/05/18 14:11:02;;;;;;;2.05;0.60;;;;;;;10.78;100.00;99540.09;4914304;29;20138;-83
2021/05/18 14:14:06;;;;;;;0.50;0.50;;;;;;;11.12;100.00;99535.72;4914911;29;20521;-77
2021/05/18 14:17:09;;;;;;;1.35;0.68;;;;;;;11.47;100.00;99530.84;4909764;29;20072;-78
2021/05/18 14:20:13;;;;;;;0.55;0.40;;;;;;;11.73;100.00;99531.69;4910790;29;20075;-78
2021/05/18 14:23:25;;;;;;;0.68;0.20;;;;;;;11.98;100.00;99524.56;4905603;29;20079;-78
2021/05/18 14:26:29;;;;;;;;;;;;;;;12.15;100.00;99526.25;4908770;29;20096;-80
2021/05/18 14:29:34;;;;;;;0.25;0.25;;;;;;;12.08;100.00;99521.09;4912073;29;20385;-80
2021/05/18 14:32:39;;;;;;;0.28;0.28;;;;;;;12.12;100.00;99521.66;4914667;29;20125;-81
2021/05/18 14:35:42;;;;;;;1.17;0.10;;;;;;;12.20;100.00;99519.19;4913755;29;20055;-85
2021/05/18 14:38:46;;;;;;;0.60;0.55;;;;;;;12.43;100.00;99522.94;4917192;29;20083;-82
2021/05/18 14:45:15;;;;;;;0.10;0.10;;;;;;;13.26;100.00;99509.47;4914165;29;20525;-80
2021/05/18 14:53:40;;;;;;;0.40;0.13;;;;;;;13.46;100.00;99504.47;4892991;29;20071;-84
2021/05/18 14:55:16;;;;;;;0.55;0.13;;;;;;;13.32;100.00;99497.03;4916349;29;20075;-85
2021/05/18 14:58:20;;;;;;;2.42;0.28;;;;;;;13.48;100.00;99499.13;4920419;29;20067;-86
2021/05/18 15:01:24;;;;;;;0.95;0.30;;;;;;;13.46;100.00;99500.91;4916033;29;20075;-87
2021/05/18 15:04:30;;;;;;;0.10;0.10;;;;;;;13.39;100.00;99502.16;4914969;29;20059;-86
2021/05/18 15:10:30;;;;;;;0.13;0.13;;;;;;;13.39;100.00;99492.97;4950002;23;20050;-82
2021/05/18 15:13:34;;;;;;;0.98;0.22;;;;;;;13.45;100.00;99488.94;4993188;28;20081;-82
2021/05/18 15:16:37;;;;;;;0.30;0.15;;;;;;;13.50;100.00;99501.41;4992596;28;20076;-81
2021/05/18 15:19:41;;;;;;;1.23;0.10;;;;;;;13.44;100.00;99495.03;4988984;28;20057;-85
2021/05/18 15:22:45;;;;;;;0.80;0.30;;;;;;;13.38;100.00;99503.41;5010806;28;20418;-82
2021/05/18 15:25:49;;;;;;;0.15;0.00;;;;;;;13.24;100.00;99500.81;5011462;28;20077;-87
2021/05/18 15:28:52;;;;;;;0.22;0.22;;;;;;;13.38;100.00;99502.66;5010380;28;20061;-86
2021/05/18 15:31:56;;;;;;;0.10;0.10;;;;;;;13.71;100.00;99504.78;5011609;28;20060;-87
2021/05/18 15:35:00;;;;;;;1.02;0.20;;;;;;;14.08;100.00;99508.13;5010646;28;20060;-87
2021/05/18 15:38:04;;;;;;;0.40;0.40;;;;;;;14.43;100.00;99497.22;4988258;28;20322;-86
2021/05/18 15:41:08;;;;;;;0.10;0.00;;;;;;;14.45;100.00;99500.28;4971712;28;20311;-86
2021/05/18 15:44:12;;;;;;;0.10;0.10;;;;;;;14.57;100.00;99501.81;4982645;28;20271;-86
2021/05/18 15:47:16;;;;;;;0.15;0.15;;;;;;;14.38;100.00;99506.38;4980266;28;20068;-84
2021/05/18 15:50:20;;;;;;;0.35;0.10;;;;;;;14.05;100.00;99500.75;4978014;28;20057;-84
2021/05/18 15:53:23;;;;;;;0.10;0.03;;;;;;;13.78;100.00;99504.28;4996958;28;20053;-82
2021/05/18 15:56:27;;;;;;;0.10;0.10;;;;;;;13.41;100.00;99507.22;5009973;28;20782;-88
2021/05/18 15:59:30;;;;;;;0.10;0.08;;;;;;;13.09;100.00;99501.00;4999647;28;20061;-89
2021/05/18 16:02:34;;;;;;;0.75;0.15;;;;;;;12.88;100.00;99502.41;4998853;28;20077;-89
2021/05/18 16:05:38;;;;;;;0.10;0.10;;;;;;;12.78;100.00;99498.25;4999331;28;20423;-87
2021/05/18 16:11:44;;;;;;;0.30;0.20;;;;;;;12.67;100.00;99496.16;5010343;28;20061;-87
2021/05/18 16:14:48;;;;;;;1.80;0.25;;;;;;;12.61;100.00;99500.19;5011137;28;20077;-87
2021/05/18 16:17:52;;;;;;;0.30;0.13;;;;;;;12.59;100.00;99497.91;5011285;28;20065;-88
2021/05/18 16:20:56;;;;;;;0.73;0.20;;;;;;;12.56;100.00;99498.16;5011301;28;20061;-87
2021/05/18 16:24:00;;;;;;;0.10;0.10;;;;;;;12.46;100.00;99505.16;5000570;28;20110;-84
2021/05/18 16:27:10;;;;;;;0.93;0.52;;;;;;;12.34;100.00;99512.72;5013459;28;20065;-87
2021/05/18 16:30:14;;;;;;;1.17;0.60;;;;;;;12.16;100.00;99510.25;4995440;28;20097;-87
2021/05/18 16:33:18;;;;;;;0.43;0.32;;;;;;;12.06;100.00;99511.72;5004980;28;20061;-87
2021/05/18 16:36:22;;;;;;;0.50;0.32;;;;;;;12.03;100.00;99505.09;5004316;28;20060;-88
2021/05/18 16:39:29;;;;;;;1.02;0.45;;;;;;;12.07;100.00;99502.06;5002265;28;20072;-88
2021/05/18 16:42:35;;;;;;;0.65;0.20;;;;;;;12.16;100.00;99499.88;5004472;28;20057;-88
2021/05/18 16:45:38;;;;;;;2.28;0.82;;;;;;;12.19;100.00;99496.06;5014904;28;20084;-87
2021/05/18 16:48:42;;;;;;;0.88;0.47;;;;;;;12.23;100.00;99500.69;5003226;28;20057;-87
2021/05/18 16:51:47;;;;;;;1.42;0.43;;;;;;;12.21;100.00;99511.56;5001783;28;20069;-87
2021/05/18 16:54:51;;;;;;;0.80;0.52;;;;;;;12.16;100.00;99510.25;5001621;28;20526;-88
2021/05/18 16:57:54;;;;;;;1.38;0.40;;;;;;;12.09;100.00;99505.13;5012740;28;20447;-87
2021/05/18 17:00:59;;;;;;;0.40;0.40;;;;;;;12.00;100.00;99506.06;5002039;28;20054;-88
2021/05/18 17:04:02;;;;;;;0.90;0.40;;;;;;;11.95;100.00;99508.81;5013103;28;20407;-86
2021/05/18 17:07:06;;;;;;;1.13;0.70;;;;;;;11.88;100.00;99506.47;5013706;28;20068;-86
2021/05/18 17:10:10;;;;;;;4.07;1.38;;;;;;;11.81;100.00;99502.06;5002857;28;20122;-87
2021/05/18 17:13:14;;;;;;;0.65;0.40;;;;;;;11.76;100.00;99505.56;5002666;28;20526;-87
2021/05/18 17:16:17;;;;;;;2.20;0.60;;;;;;;11.67;100.00;99508.53;5001130;28;20069;-87
2021/05/18 17:19:22;;;;;;;1.45;0.28;;;;;;;11.52;100.00;99509.88;5012989;28;20064;-82
2021/05/18 17:22:26;;;;;;;0.90;0.55;;;;;;;11.38;100.00;99509.47;5014825;28;20061;-87
2021/05/18 17:25:30;;;;;;;2.05;0.50;;;;;;;11.28;100.00;99513.63;5002616;28;20073;-86
2021/05/18 17:28:37;;;;;;;0.90;0.70;;;;;;;11.20;100.00;99517.31;5012892;28;20142;-85
2021/05/18 17:31:43;;;;;;;1.15;0.43;;;;;;;11.12;100.00;99513.44;5012505;28;20122;-88
2021/05/18 17:34:46;;;;;;;0.45;0.35;;;;;;;11.12;100.00;99519.00;4993425;28;20542;-88
2021/05/18 17:37:52;;;;;;;0.55;0.30;;;;;;;11.10;100.00;99529.88;4975434;28;20611;-87
2021/05/18 17:40:55;;;;;;;0.77;0.50;;;;;;;11.09;100.00;99525.53;4987635;28;20069;-84
2021/05/18 17:43:59;;;;;;;1.63;0.40;;;;;;;11.09;100.00;99517.19;5000096;28;20068;-87
2021/05/18 17:47:03;;;;;;;0.73;0.38;;;;;;;11.08;100.00;99515.66;5012690;28;20086;-87
2021/05/18 17:50:09;;;;;;;5.60;0.77;;;;;;;11.08;100.00;99524.03;4999905;28;20064;-88
2021/05/18 17:53:12;;;;;;;1.23;0.43;;;;;;;11.08;100.00;99526.81;5012868;28;20064;-86
2021/05/18 17:56:16;;;;;;;0.82;0.35;;;;;;;11.13;100.00;99537.28;5000433;28;20073;-87
2021/05/18 17:59:19;;;;;;;1.17;0.30;;;;;;;11.15;100.00;99529.19;5010769;28;20537;-86
2021/05/18 18:02:23;;;;;;;0.70;0.38;;;;;;;11.19;100.00;99518.59;5000985;28;20065;-90
2021/05/18 18:05:27;;;;;;;0.90;0.40;;;;;;;11.21;100.00;99532.81;5001833;28;20061;-90
2021/05/18 18:08:32;;;;;;;1.77;0.30;;;;;;;11.18;100.00;99522.63;5012492;28;20057;-90
2021/05/18 18:11:38;;;;;;;0.17;0.17;;;;;;;11.19;100.00;99526.97;4993022;28;20527;-89
2021/05/18 18:14:41;;;;;;;0.50;0.30;;;;;;;11.17;100.00;99516.31;4992724;28;20073;-90
2021/05/18 18:17:45;;;;;;;0.10;0.10;;;;;;;11.15;100.00;99518.03;4981717;28;20061;-89
2021/05/18 18:20:48;;;;;;;1.27;0.20;;;;;;;11.13;100.00;99517.75;4980954;28;20066;-87
2021/05/18 18:23:53;;;;;;;1.85;0.20;;;;;;;11.14;100.00;99522.06;4979882;28;20838;-90
2021/05/18 18:26:56;;;;;;;0.20;0.10;;;;;;;11.15;100.00;99518.03;4979241;28;20108;-83
2021/05/18 18:30:00;;;;;;;2.30;0.47;;;;;;;11.22;100.00;99523.94;4992346;28;20420;-86
2021/05/18 18:33:04;;;;;;;1.55;0.60;;;;;;;11.23;100.00;99521.94;4980439;28;20061;-87
2021/05/18 18:36:08;;;;;;;1.13;0.60;;;;;;;11.17;100.00;99529.47;4979580;28;20074;-89
2021/05/18 18:39:14;;;;;;;1.08;0.40;;;;;;;11.05;100.00;99524.97;4980788;28;20065;-88
2021/05/18 18:42:17;;;;;;;0.68;0.60;;;;;;;10.88;100.00;99521.97;4980331;28;20057;-89
2021/05/18 18:45:20;;;;;;;1.63;0.55;;;;;;;10.66;100.00;99522.44;4981107;28;20065;-89
2021/05/18 18:48:25;;;;;;;1.65;0.82;;;;;;;10.54;100.00;99526.31;4993669;28;20107;-89
2021/05/18 18:51:32;;;;;;;2.40;0.95;;;;;;;10.38;100.00;99529.59;4981784;28;20436;-90
2021/05/18 18:54:35;;;;;;;7.85;1.50;;;;;;;10.27;100.00;99534.97;4982882;28;20057;-87
2021/05/18 18:57:39;;;;;;;3.20;1.35;;;;;;;10.10;100.00;99535.91;4993911;28;20077;-86
2021/05/18 19:00:43;;;;;;;11.35;1.70;;;;;;;9.92;100.00;99548.00;4982119;28;20073;-86
2021/05/18 19:03:52;;;;;;;1.55;1.02;;;;;;;9.75;100.00;99541.34;4981969;28;20065;-88
2021/05/18 19:07:45;;;;;;;1.38;0.75;;;;;;;9.60;100.00;99538.56;4981035;28;20671;-89
2021/05/18 19:13:24;;;;;;;1.40;0.52;;;;;;;9.26;100.00;99557.81;4992433;28;20123;-90
2021/05/18 19:16:27;;;;;;;1.42;0.63;;;;;;;9.08;100.00;99553.91;4991103;28;20057;-86
2021/05/18 19:19:31;;;;;;;1.23;0.85;;;;;;;8.96;100.00;99552.16;4979569;28;20069;-94
2021/05/18 19:22:34;;;;;;;1.60;0.98;;;;;;;8.85;100.00;99557.47;4979362;28;20058;-78
2021/05/18 19:25:39;;;;;;;4.88;0.75;;;;;;;8.69;100.00;99557.06;4990585;28;20416;-81
2021/05/18 19:28:43;;;;;;;2.72;0.80;;;;;;;8.56;100.00;99556.50;4990340;28;20073;-81
2021/05/18 19:31:46;;;;;;;3.85;1.55;;;;;;;8.41;100.00;99567.50;4990608;28;20070;-84
2021/05/18 19:34:52;;;;;;;3.67;1.13;;;;;;;8.32;100.00;99564.75;4990545;28;20065;-81
2021/05/18 19:50:56;;;;;;;0.55;0.43;;;;;;;7.90;100.00;99581.31;4991632;28;20053;-88
2021/05/18 19:53:59;;;;;;;4.55;1.42;;;;;;;7.87;100.00;99584.25;4980241;28;20123;-87
2021/05/18 20:20:29;;;;;;;1.23;0.95;;;;;;;8.11;100.00;99627.50;5009428;28;20053;-83
2021/05/18 20:23:32;;;;;;;2.08;1.23;;;;;;;8.15;100.00;99624.56;5013847;28;20081;-84
2021/05/18 20:26:41;;;;;;;4.10;0.98;;;;;;;8.15;100.00;99621.78;5004450;28;20665;-83
2021/05/18 20:29:47;;;;;;;1.60;1.17;;;;;;;8.17;100.00;99619.31;5002418;28;20049;-83
2021/05/18 20:32:51;;;;;;;0.40;0.40;;;;;;;8.17;100.00;99613.78;4978416;28;20415;-82